Time;durP1;ratioP1;P1;durP2;ratioP2;P2;SDS_P1;SDS_P2;PMS_P1;PMS_P2;Temp;Humidity;BMP_temperature;BMP_pressure;BME280_temperature;BME280_humidity;BME280_pressure;Samples;Min_cycle;Max_cycle;Signal;HPM_P1;HPM_P2
2023/10/23 00:01:38;;;;;;;5.22;3.40;;;;;;;9.57;100.00;100970.63;6225434;28;20051;-73
2023/10/23 00:04:39;;;;;;;6.45;3.53;;;;;;;9.57;100.00;100963.59;6225882;28;20046;-72
2023/10/23 00:07:40;;;;;;;3.92;2.25;;;;;;;9.61;100.00;100969.56;6225730;28;20053;-72
2023/10/23 00:10:42;;;;;;;7.53;3.50;;;;;;;9.60;100.00;100973.97;6225691;28;20046;-72
2023/10/23 00:13:43;;;;;;;3.65;2.63;;;;;;;9.64;100.00;100970.28;6225728;28;20050;-72
2023/10/23 00:16:46;;;;;;;9.02;4.25;;;;;;;9.65;100.00;100963.25;6225752;28;20050;-72
2023/10/23 00:19:47;;;;;;;6.88;3.30;;;;;;;9.67;100.00;100964.00;6225411;28;20362;-72
2023/10/23 00:22:49;;;;;;;13.95;3.75;;;;;;;9.69;100.00;100962.19;6225332;28;20058;-72
2023/10/23 00:25:50;;;;;;;6.07;3.65;;;;;;;9.68;100.00;100960.50;6225265;28;20465;-72
2023/10/23 00:28:52;;;;;;;10.75;4.72;;;;;;;9.68;100.00;100971.00;6225431;28;20057;-72
2023/10/23 00:31:54;;;;;;;6.15;3.30;;;;;;;9.70;100.00;100982.25;6225431;28;20056;-72
2023/10/23 00:34:56;;;;;;;12.60;4.85;;;;;;;9.74;100.00;100983.81;6225303;28;20053;-75
2023/10/23 00:37:57;;;;;;;6.70;3.60;;;;;;;9.79;100.00;100981.84;6227849;28;20061;-73
2023/10/23 00:40:59;;;;;;;8.27;3.97;;;;;;;9.85;100.00;100980.69;6229655;28;20046;-74
2023/10/23 00:44:01;;;;;;;8.30;4.38;;;;;;;9.85;100.00;100978.06;6229801;28;20354;-74
2023/10/23 00:47:05;;;;;;;11.70;5.47;;;;;;;9.89;100.00;100980.47;6230064;28;20350;-74
2023/10/23 00:50:07;;;;;;;8.32;4.10;;;;;;;9.93;100.00;100980.34;6229578;28;20050;-73
2023/10/23 00:53:08;;;;;;;7.75;4.13;;;;;;;9.94;100.00;100977.63;6229568;28;20056;-73
2023/10/23 00:56:10;;;;;;;9.45;5.47;;;;;;;9.96;100.00;100981.06;6229512;28;20442;-72
2023/10/23 00:59:13;;;;;;;10.65;5.93;;;;;;;9.96;100.00;100982.84;6229603;28;20053;-74
2023/10/23 01:02:16;;;;;;;13.27;6.55;;;;;;;9.89;100.00;100985.72;6229307;28;20042;-74
2023/10/23 01:05:18;;;;;;;9.43;4.50;;;;;;;9.90;100.00;100991.81;6229567;28;20054;-74
2023/10/23 01:08:19;;;;;;;12.35;5.32;;;;;;;9.91;100.00;100990.91;6229210;28;20045;-74
2023/10/23 01:11:21;;;;;;;11.95;5.68;;;;;;;9.90;100.00;100989.19;6229084;28;20053;-74
2023/10/23 01:14:22;;;;;;;11.75;6.03;;;;;;;9.88;100.00;100991.06;6229098;28;20679;-74
2023/10/23 01:17:25;;;;;;;9.50;5.03;;;;;;;9.91;100.00;100990.91;6229258;28;20054;-74
2023/10/23 01:20:28;;;;;;;9.52;5.28;;;;;;;9.96;100.00;100991.56;6228788;28;20050;-74
2023/10/23 01:23:33;;;;;;;9.55;4.95;;;;;;;9.94;100.00;100997.78;6228771;28;20049;-73
2023/10/23 01:26:36;;;;;;;15.60;6.80;;;;;;;9.98;100.00;101004.59;6227600;28;20042;-74
2023/10/23 01:29:37;;;;;;;9.95;5.28;;;;;;;10.02;100.00;101009.63;6225671;28;20050;-74
2023/10/23 01:32:39;;;;;;;9.75;5.10;;;;;;;10.02;100.00;101006.16;6217549;28;20361;-74
2023/10/23 01:35:40;;;;;;;7.43;4.50;;;;;;;10.05;100.00;101013.91;6225205;28;20050;-74
2023/10/23 01:38:43;;;;;;;15.90;6.55;;;;;;;10.08;100.00;101016.38;6223917;28;20056;-74
2023/10/23 01:41:46;;;;;;;8.50;4.82;;;;;;;10.08;100.00;101014.63;6228656;28;20046;-74
2023/10/23 01:44:47;;;;;;;9.90;4.97;;;;;;;10.10;100.00;101017.16;6228087;28;20050;-74
2023/10/23 01:47:49;;;;;;;10.30;4.97;;;;;;;10.10;100.00;101014.53;6228224;28;20046;-72
2023/10/23 01:50:50;;;;;;;14.25;5.90;;;;;;;10.10;100.00;101017.16;6227525;28;20073;-74
2023/10/23 01:53:51;;;;;;;14.52;6.82;;;;;;;10.09;100.00;101011.06;6228650;28;20057;-74
2023/10/23 01:56:54;;;;;;;14.68;5.65;;;;;;;10.12;100.00;101012.69;6228154;28;20069;-74
2023/10/23 02:00:03;;;;;;;11.00;5.68;;;;;;;10.15;100.00;101010.75;6228050;28;20061;-74
2023/10/23 02:03:04;;;;;;;11.77;5.90;;;;;;;10.19;100.00;101021.97;6227754;28;20053;-74
2023/10/23 02:06:06;;;;;;;11.80;6.47;;;;;;;10.24;100.00;101013.88;6228015;28;20053;-74
2023/10/23 02:09:08;;;;;;;16.45;7.75;;;;;;;10.27;100.00;101022.50;6227834;28;20060;-74
2023/10/23 02:12:11;;;;;;;13.68;6.85;;;;;;;10.29;100.00;101015.41;6227694;28;20049;-74
2023/10/23 02:15:13;;;;;;;17.50;7.28;;;;;;;10.32;100.00;101022.28;6227609;28;20350;-74
2023/10/23 02:18:14;;;;;;;17.98;8.93;;;;;;;10.30;100.00;101027.59;6226982;28;20330;-74
2023/10/23 02:21:16;;;;;;;13.82;6.78;;;;;;;10.33;100.00;101026.63;6227212;28;20061;-74
2023/10/23 02:24:17;;;;;;;13.95;6.30;;;;;;;10.36;100.00;101029.09;6227565;28;20054;-74
2023/10/23 02:27:20;;;;;;;13.82;7.40;;;;;;;10.33;100.00;101031.88;6227440;28;20057;-74
2023/10/23 02:30:22;;;;;;;14.60;7.25;;;;;;;10.36;100.00;101031.72;6227282;28;20093;-74
2023/10/23 02:33:23;;;;;;;11.60;5.97;;;;;;;10.29;100.00;101033.78;6227042;28;20441;-72
2023/10/23 02:36:25;;;;;;;16.50;7.85;;;;;;;10.25;100.00;101044.50;6227581;28;20050;-74
2023/10/23 02:39:27;;;;;;;14.52;7.15;;;;;;;10.25;100.00;101042.72;6227112;28;20050;-74
2023/10/23 02:42:30;;;;;;;16.23;8.00;;;;;;;10.26;100.00;101044.41;6227042;28;20046;-74
2023/10/23 02:45:33;;;;;;;15.48;7.95;;;;;;;10.16;100.00;101048.38;6226857;28;20069;-74
2023/10/23 02:48:35;;;;;;;13.98;6.90;;;;;;;10.11;100.00;101047.75;6227146;28;20520;-74
2023/10/23 02:51:37;;;;;;;17.10;8.52;;;;;;;10.06;100.00;101061.09;6227299;28;20062;-74
2023/10/23 02:54:38;;;;;;;20.38;9.00;;;;;;;10.02;100.00;101058.69;6226879;28;20111;-74
2023/10/23 02:57:41;;;;;;;13.65;6.90;;;;;;;9.95;100.00;101057.25;6226894;28;20053;-74
2023/10/23 03:00:43;;;;;;;20.00;7.68;;;;;;;9.91;100.00;101062.66;6226307;28;20050;-74
2023/10/23 03:03:44;;;;;;;13.40;7.05;;;;;;;9.93;100.00;101059.09;6226652;28;20057;-74
2023/10/23 03:06:46;;;;;;;17.80;8.82;;;;;;;9.95;100.00;101055.50;6226661;28;20050;-74
2023/10/23 03:09:47;;;;;;;19.23;8.82;;;;;;;9.97;100.00;101060.66;6226607;28;20053;-74
2023/10/23 03:12:50;;;;;;;21.30;10.00;;;;;;;10.03;100.00;101058.59;6226320;28;20046;-74
2023/10/23 03:15:52;;;;;;;21.33;10.20;;;;;;;10.10;100.00;101061.81;6226624;28;20050;-73
2023/10/23 03:18:53;;;;;;;20.60;10.45;;;;;;;10.14;100.00;101064.22;6226385;28;20050;-73
2023/10/23 03:21:55;;;;;;;22.13;10.40;;;;;;;10.20;100.00;101063.06;6226358;28;20149;-74
2023/10/23 03:24:57;;;;;;;21.02;9.77;;;;;;;10.26;100.00;101065.44;6226409;28;20137;-73
2023/10/23 03:28:00;;;;;;;25.88;11.40;;;;;;;10.31;100.00;101067.84;6226087;28;20500;-74
2023/10/23 03:31:03;;;;;;;23.98;11.52;;;;;;;10.39;100.00;101076.22;6226144;28;20057;-73
2023/10/23 03:34:04;;;;;;;24.52;11.45;;;;;;;10.43;100.00;101074.31;6225900;28;20361;-73
2023/10/23 03:37:06;;;;;;;28.80;12.43;;;;;;;10.46;100.00;101080.28;6226312;28;20397;-73
2023/10/23 03:40:10;;;;;;;24.88;12.38;;;;;;;10.47;100.00;101076.72;6225933;28;20133;-73
2023/10/23 03:43:13;;;;;;;31.38;13.00;;;;;;;10.49;100.00;101079.25;6225767;28;20046;-73
2023/10/23 03:46:14;;;;;;;27.60;11.95;;;;;;;10.50;100.00;101079.22;6226078;28;20050;-74
2023/10/23 03:49:15;;;;;;;29.90;12.95;;;;;;;10.50;100.00;101073.97;6225906;28;20046;-74
2023/10/23 03:52:17;;;;;;;28.80;12.75;;;;;;;10.53;100.00;101079.03;6225757;28;20054;-73
2023/10/23 03:55:19;;;;;;;32.65;14.82;;;;;;;10.57;100.00;101085.00;6225802;28;20343;-73
2023/10/23 03:58:22;;;;;;;26.00;13.15;;;;;;;10.57;100.00;101091.13;6226080;28;20058;-73
2023/10/23 04:01:23;;;;;;;33.40;13.68;;;;;;;10.54;100.00;101090.44;6225657;28;20505;-73
2023/10/23 04:04:25;;;;;;;34.08;14.25;;;;;;;10.55;100.00;101089.50;6225820;28;20058;-73
2023/10/23 04:07:26;;;;;;;25.73;12.15;;;;;;;10.57;100.00;101088.47;6225739;28;20055;-73
2023/10/23 04:10:27;;;;;;;30.63;12.93;;;;;;;10.60;100.00;101090.13;6225568;28;20053;-73
2023/10/23 04:13:30;;;;;;;30.52;13.63;;;;;;;10.58;100.00;101078.81;6228836;28;20053;-73
2023/10/23 04:16:32;;;;;;;32.47;12.63;;;;;;;10.53;100.00;101094.81;6230437;28;20438;-73
2023/10/23 04:19:33;;;;;;;33.00;14.18;;;;;;;10.53;100.00;101088.72;6230294;28;20137;-72
2023/10/23 04:22:34;;;;;;;35.60;14.43;;;;;;;10.49;100.00;101089.78;6230328;28;20046;-73
2023/10/23 04:25:36;;;;;;;37.03;14.18;;;;;;;10.50;100.00;101094.13;6230297;28;20169;-73
2023/10/23 04:28:39;;;;;;;34.70;15.43;;;;;;;10.52;100.00;101089.63;6230301;28;20046;-73
2023/10/23 04:31:40;;;;;;;30.20;12.90;;;;;;;10.59;100.00;101097.16;6230024;28;20057;-73
2023/10/23 04:34:41;;;;;;;36.55;14.65;;;;;;;10.57;100.00;101100.78;6229768;28;20046;-73
2023/10/23 04:37:43;;;;;;;36.92;13.95;;;;;;;10.55;100.00;101110.53;6230095;28;20046;-73
2023/10/23 04:40:45;;;;;;;32.53;14.43;;;;;;;10.49;100.00;101105.53;6229675;28;20056;-73
2023/10/23 04:43:48;;;;;;;30.83;14.10;;;;;;;10.49;100.00;101111.69;6229863;28;20046;-73
2023/10/23 04:46:49;;;;;;;30.90;13.50;;;;;;;10.45;100.00;101115.38;6229714;28;20058;-73
2023/10/23 04:49:51;;;;;;;27.10;13.50;;;;;;;10.41;100.00;101116.44;6229716;28;20050;-73
2023/10/23 04:52:53;;;;;;;35.55;13.82;;;;;;;10.36;100.00;101118.44;6229447;28;20053;-73
2023/10/23 04:55:54;;;;;;;31.33;13.73;;;;;;;10.36;100.00;101113.16;6229486;28;20362;-72
2023/10/23 04:58:57;;;;;;;30.85;13.90;;;;;;;10.43;100.00;101109.31;6229428;28;20176;-73
2023/10/23 05:01:58;;;;;;;32.70;13.55;;;;;;;10.44;100.00;101108.38;6229036;28;20049;-73
2023/10/23 05:05:00;;;;;;;29.70;14.00;;;;;;;10.44;100.00;101113.63;6229464;28;20058;-73
2023/10/23 05:08:01;;;;;;;32.95;14.10;;;;;;;10.47;100.00;101108.25;6229179;28;20045;-73
2023/10/23 05:11:06;;;;;;;34.33;14.35;;;;;;;10.33;100.00;101108.03;6229097;28;20053;-73
2023/10/23 05:14:09;;;;;;;27.83;13.25;;;;;;;10.30;100.00;101101.16;6228664;28;20053;-73
2023/10/23 05:17:10;;;;;;;27.80;11.80;;;;;;;10.26;100.00;101104.84;6229263;28;20056;-73
2023/10/23 05:20:12;;;;;;;27.70;12.25;;;;;;;10.26;100.00;101102.22;6229080;28;20422;-73
2023/10/23 05:23:14;;;;;;;28.55;11.85;;;;;;;10.27;100.00;101098.69;6227815;28;20467;-73
2023/10/23 05:26:15;;;;;;;30.27;12.27;;;;;;;10.26;100.00;101104.84;6228668;28;20061;-73
2023/10/23 05:29:18;;;;;;;23.38;11.38;;;;;;;10.27;100.00;101109.19;6228965;28;20104;-73
2023/10/23 05:32:19;;;;;;;27.55;13.15;;;;;;;10.30;100.00;101114.28;6228685;28;20049;-73
2023/10/23 05:35:21;;;;;;;25.40;12.13;;;;;;;10.34;100.00;101128.97;6228617;28;20470;-73
2023/10/23 05:38:22;;;;;;;31.63;13.75;;;;;;;10.33;100.00;101123.81;6228669;28;20049;-73
2023/10/23 05:41:24;;;;;;;25.95;11.70;;;;;;;10.38;100.00;101119.19;6228300;28;20053;-73
2023/10/23 05:44:26;;;;;;;27.38;12.75;;;;;;;10.35;100.00;101129.84;6228530;28;20053;-73
2023/10/23 05:47:28;;;;;;;38.38;15.30;;;;;;;10.45;100.00;101135.53;6228393;28;20050;-73
2023/10/23 05:50:30;;;;;;;28.08;13.30;;;;;;;10.40;100.00;101139.22;6228664;28;20054;-73
2023/10/23 05:53:32;;;;;;;26.23;13.10;;;;;;;10.45;100.00;101148.69;6228176;28;20461;-74
2023/10/23 05:56:33;;;;;;;28.35;13.02;;;;;;;10.28;100.00;101149.44;6228372;28;20049;-73
2023/10/23 05:59:36;;;;;;;31.48;13.05;;;;;;;10.21;100.00;101159.31;6228148;28;20313;-73
2023/10/23 06:02:38;;;;;;;25.27;12.20;;;;;;;10.21;100.00;101161.09;6228020;28;20053;-73
2023/10/23 06:05:43;;;;;;;27.77;12.77;;;;;;;10.27;100.00;101160.88;6227833;28;20354;-73
2023/10/23 06:08:44;;;;;;;28.23;12.32;;;;;;;10.32;100.00;101172.03;6228140;28;20129;-73
2023/10/23 06:11:45;;;;;;;28.48;13.20;;;;;;;10.27;100.00;101174.84;6227728;28;20046;-73
2023/10/23 06:14:48;;;;;;;30.13;13.27;;;;;;;10.19;100.00;101171.69;6227980;28;20132;-73
2023/10/23 06:17:50;;;;;;;23.83;11.88;;;;;;;10.21;100.00;101175.09;6227819;28;20144;-73
2023/10/23 06:20:57;;;;;;;27.58;12.02;;;;;;;10.28;100.00;101176.56;6227384;28;20452;-73
2023/10/23 06:23:59;;;;;;;30.15;14.50;;;;;;;10.29;100.00;101183.50;6227607;28;20434;-74
2023/10/23 06:27:00;;;;;;;29.25;13.75;;;;;;;10.32;100.00;101178.13;6221771;28;20054;-73
2023/10/23 06:30:04;;;;;;;40.03;15.30;;;;;;;10.23;100.00;101182.91;6222357;28;20458;-74
2023/10/23 06:33:05;;;;;;;30.13;15.00;;;;;;;10.23;100.00;101188.16;6224465;28;20046;-74
2023/10/23 06:36:07;;;;;;;39.05;16.95;;;;;;;10.26;100.00;101190.66;6218883;28;20054;-73
2023/10/23 06:39:09;;;;;;;33.00;14.45;;;;;;;10.24;100.00;101187.25;6227160;28;20058;-73
2023/10/23 06:42:10;;;;;;;33.65;13.75;;;;;;;10.20;100.00;101196.19;6227040;28;20046;-73
2023/10/23 06:45:13;;;;;;;34.75;14.88;;;;;;;10.24;100.00;101203.88;6226736;28;20365;-73
2023/10/23 06:48:15;;;;;;;30.73;12.90;;;;;;;10.25;100.00;101200.31;6225044;28;20155;-73
2023/10/23 06:51:17;;;;;;;30.95;14.13;;;;;;;10.28;100.00;101194.94;6224950;28;20054;-73
2023/10/23 06:54:20;;;;;;;34.28;14.25;;;;;;;10.31;100.00;101191.31;6226588;28;20056;-73
2023/10/23 06:57:21;;;;;;;33.85;13.77;;;;;;;10.33;100.00;101208.72;6218785;28;20054;-73
2023/10/23 07:00:24;;;;;;;34.30;14.57;;;;;;;10.33;100.00;101202.63;6225396;28;20052;-73
2023/10/23 07:03:26;;;;;;;34.33;15.23;;;;;;;10.28;100.00;101209.84;6223578;28;20439;-73
2023/10/23 07:06:27;;;;;;;35.47;14.63;;;;;;;10.35;100.00;101214.75;6218377;28;20061;-73
2023/10/23 07:09:31;;;;;;;32.85;13.93;;;;;;;10.33;100.00;101210.50;6226641;28;20054;-73
2023/10/23 07:12:32;;;;;;;30.13;13.05;;;;;;;10.34;100.00;101212.19;6226426;28;20057;-73
2023/10/23 07:15:35;;;;;;;27.55;12.32;;;;;;;10.37;100.00;101214.69;6226571;28;20046;-73
2023/10/23 07:18:36;;;;;;;26.42;12.20;;;;;;;10.38;100.00;101217.25;6216528;28;20049;-74
2023/10/23 07:21:38;;;;;;;36.67;13.82;;;;;;;10.38;100.00;101209.38;6213835;28;20054;-75
2023/10/23 07:24:40;;;;;;;32.28;13.90;;;;;;;10.19;100.00;101216.34;6225767;28;20046;-74
2023/10/23 07:27:41;;;;;;;31.60;13.65;;;;;;;10.13;100.00;101214.00;6221761;28;20468;-74
2023/10/23 07:30:44;;;;;;;35.70;14.40;;;;;;;10.13;100.00;101209.59;6217502;28;20054;-74
2023/10/23 07:33:45;;;;;;;34.85;13.80;;;;;;;10.07;100.00;101211.63;6225759;28;20052;-73
2023/10/23 07:36:47;;;;;;;28.95;12.55;;;;;;;10.04;100.00;101212.63;6209933;28;20054;-72
2023/10/23 07:39:48;;;;;;;28.30;12.70;;;;;;;10.12;100.00;101207.00;6201529;28;20054;-75
2023/10/23 07:42:49;;;;;;;34.88;14.27;;;;;;;10.07;100.00;101207.22;6201543;28;20061;-74
2023/10/23 07:45:53;;;;;;;32.67;14.05;;;;;;;10.07;100.00;101209.00;6201332;28;20060;-75
2023/10/23 07:48:55;;;;;;;32.90;12.82;;;;;;;10.10;100.00;101208.88;6220390;28;20085;-74
2023/10/23 07:51:56;;;;;;;27.80;12.73;;;;;;;10.11;100.00;101202.69;6224373;28;20054;-74
2023/10/23 07:54:58;;;;;;;32.83;11.77;;;;;;;10.18;100.00;101216.41;6221485;28;20057;-73
2023/10/23 07:58:00;;;;;;;33.22;13.23;;;;;;;10.15;100.00;101218.25;6222676;28;20065;-73
2023/10/23 08:01:05;;;;;;;29.70;13.23;;;;;;;10.26;100.00;101227.44;6224321;28;20136;-74
2023/10/23 08:04:07;;;;;;;29.30;12.07;;;;;;;10.24;100.00;101227.53;6219792;28;20047;-74
2023/10/23 08:07:08;;;;;;;28.63;12.30;;;;;;;10.24;100.00;101217.00;6221644;28;20366;-74
2023/10/23 08:10:10;;;;;;;29.00;12.32;;;;;;;10.13;100.00;101216.63;6220672;28;20443;-73
2023/10/23 08:13:11;;;;;;;26.65;11.60;;;;;;;10.14;100.00;101216.53;6215949;28;20447;-73
2023/10/23 08:16:14;;;;;;;32.50;12.82;;;;;;;10.24;100.00;101214.38;6221861;28;20046;-73
2023/10/23 08:19:16;;;;;;;28.00;12.50;;;;;;;10.35;100.00;101214.75;6224243;28;20057;-73
2023/10/23 08:22:17;;;;;;;29.05;12.18;;;;;;;10.39;100.00;101211.06;6217090;28;20365;-73
2023/10/23 08:25:18;;;;;;;32.95;12.80;;;;;;;10.48;100.00;101211.56;6218993;28;20038;-73
2023/10/23 08:28:20;;;;;;;26.58;12.07;;;;;;;10.60;100.00;101217.13;6222717;28;20058;-73
2023/10/23 08:31:23;;;;;;;29.23;12.70;;;;;;;10.63;100.00;101217.00;6216003;28;20050;-73
2023/10/23 08:34:24;;;;;;;28.92;11.73;;;;;;;10.68;100.00;101223.81;6209119;28;20042;-74
2023/10/23 08:37:25;;;;;;;31.90;13.57;;;;;;;10.67;100.00;101220.31;6217550;28;20054;-73
2023/10/23 08:40:27;;;;;;;28.75;12.40;;;;;;;10.63;100.00;101221.41;6223806;28;20057;-75
2023/10/23 08:43:29;;;;;;;29.00;12.50;;;;;;;10.65;100.00;101219.53;6211605;28;20046;-75
2023/10/23 08:46:33;;;;;;;29.08;13.23;;;;;;;10.58;100.00;101213.75;6201173;28;20055;-74
2023/10/23 08:49:34;;;;;;;33.53;14.55;;;;;;;10.66;100.00;101219.47;6223313;28;20442;-75
2023/10/23 08:52:43;;;;;;;31.65;12.85;;;;;;;10.74;100.00;101227.00;6223717;28;20061;-75
2023/10/23 08:55:45;;;;;;;29.23;11.73;;;;;;;10.80;100.00;101226.72;6223847;28;20054;-73
2023/10/23 08:58:52;;;;;;;33.72;13.80;;;;;;;10.86;100.00;101223.81;6215758;28;20399;-74
2023/10/23 09:01:55;;;;;;;32.55;13.45;;;;;;;10.91;100.00;101223.59;6225253;28;20059;-74
2023/10/23 09:04:56;;;;;;;27.33;12.48;;;;;;;10.91;100.00;101219.19;6224740;28;20073;-73
2023/10/23 09:07:58;;;;;;;27.70;13.30;;;;;;;10.93;100.00;101227.84;6205223;28;20058;-73
2023/10/23 09:11:00;;;;;;;28.85;12.38;;;;;;;11.01;100.00;101221.38;6204758;28;20058;-73
2023/10/23 09:14:01;;;;;;;28.27;12.77;;;;;;;11.04;100.00;101219.47;6204813;28;20042;-73
2023/10/23 09:17:04;;;;;;;25.23;11.15;;;;;;;11.18;100.00;101217.03;6204860;28;20058;-73
2023/10/23 09:20:20;;;;;;;27.95;13.20;;;;;;;11.25;100.00;101219.34;6204498;28;20058;-73
2023/10/23 09:23:22;;;;;;;28.75;12.18;;;;;;;11.21;100.00;101212.53;6217199;28;20054;-73
2023/10/23 09:26:25;;;;;;;23.30;11.35;;;;;;;11.23;100.00;101215.94;6220841;28;20058;-74
2023/10/23 09:29:28;;;;;;;28.23;11.88;;;;;;;11.26;100.00;101210.53;6204511;28;20050;-74
2023/10/23 09:32:31;;;;;;;28.15;11.95;;;;;;;11.24;100.00;101207.13;6204117;28;20077;-74
2023/10/23 09:35:34;;;;;;;24.50;11.90;;;;;;;11.21;100.00;101205.47;6204239;28;20054;-74
2023/10/23 09:38:36;;;;;;;24.48;10.63;;;;;;;11.31;100.00;101208.50;6204203;28;20355;-74
2023/10/23 09:41:38;;;;;;;25.58;10.27;;;;;;;11.48;100.00;101208.53;6204335;28;20046;-75
2023/10/23 09:44:41;;;;;;;23.48;10.45;;;;;;;11.49;100.00;101204.13;6204075;28;20061;-75
2023/10/23 09:47:46;;;;;;;23.33;10.45;;;;;;;11.48;100.00;101207.69;6204046;28;20050;-73
2023/10/23 09:50:49;;;;;;;19.30;9.10;;;;;;;11.58;100.00;101208.94;6203684;28;20451;-74
2023/10/23 09:53:59;;;;;;;21.92;11.25;;;;;;;11.67;100.00;101201.44;6204055;28;20066;-75
2023/10/23 09:57:04;;;;;;;23.38;11.05;;;;;;;11.67;100.00;101195.31;6203855;28;20427;-73
2023/10/23 10:00:13;;;;;;;24.00;9.82;;;;;;;11.80;100.00;101196.38;6203920;28;20058;-73
2023/10/23 10:03:18;;;;;;;16.10;8.65;;;;;;;11.92;100.00;101194.94;6220468;28;20432;-75
2023/10/23 10:06:24;;;;;;;21.05;9.18;;;;;;;11.92;100.00;101201.06;6228395;28;20430;-73
2023/10/23 10:09:26;;;;;;;19.15;8.10;;;;;;;11.96;100.00;101193.00;6226978;28;20046;-74
2023/10/23 10:12:29;;;;;;;18.65;9.52;;;;;;;11.95;100.00;101191.31;6227871;28;20057;-74
2023/10/23 10:15:32;;;;;;;15.85;7.68;;;;;;;12.07;100.00;101185.38;6227742;28;20348;-74
2023/10/23 10:18:36;;;;;;;13.55;6.72;;;;;;;12.26;100.00;101185.25;6227549;28;20046;-74
2023/10/23 10:21:45;;;;;;;13.73;6.90;;;;;;;12.33;100.00;101184.84;6227531;28;20057;-73
2023/10/23 10:24:48;;;;;;;13.88;6.30;;;;;;;12.32;100.00;101174.41;6226027;28;20427;-75
2023/10/23 10:27:56;;;;;;;11.98;5.97;;;;;;;12.28;100.00;101180.78;6227290;28;20057;-73
2023/10/23 10:30:58;;;;;;;13.57;5.95;;;;;;;12.32;100.00;101171.78;6227012;28;20476;-74
2023/10/23 10:34:01;;;;;;;11.25;5.88;;;;;;;12.35;100.00;101175.09;6227091;28;20335;-72
2023/10/23 10:37:05;;;;;;;10.70;5.93;;;;;;;12.42;100.00;101178.25;6227091;28;20049;-73
2023/10/23 10:40:10;;;;;;;16.77;6.65;;;;;;;12.42;100.00;101178.25;6227058;28;20053;-71
2023/10/23 10:43:19;;;;;;;12.27;5.65;;;;;;;12.47;100.00;101164.81;6226906;28;20054;-74
2023/10/23 10:46:21;;;;;;;8.45;5.05;;;;;;;12.57;100.00;101164.22;6227009;28;20042;-74
2023/10/23 10:49:24;;;;;;;9.55;5.03;;;;;;;12.61;100.00;101167.53;6226883;28;20042;-72
2023/10/23 10:52:27;;;;;;;9.52;5.00;;;;;;;12.63;100.00;101171.81;6226750;28;20358;-74
2023/10/23 10:55:29;;;;;;;9.38;4.88;;;;;;;12.66;100.00;101160.22;6226733;28;20054;-74
2023/10/23 10:58:30;;;;;;;6.25;3.80;;;;;;;12.81;100.00;101159.38;6226815;28;20097;-72
2023/10/23 11:01:32;;;;;;;7.10;3.80;;;;;;;12.91;100.00;101151.81;6226502;28;20060;-72
2023/10/23 11:04:35;;;;;;;11.43;3.95;;;;;;;12.91;100.00;101155.28;6226522;28;20411;-74
2023/10/23 11:07:37;;;;;;;8.73;4.10;;;;;;;12.83;100.00;101146.94;6226640;28;20046;-75
2023/10/23 11:10:39;;;;;;;6.10;3.13;;;;;;;12.82;100.00;101149.69;6226539;28;20144;-73
2023/10/23 11:13:41;;;;;;;4.90;3.03;;;;;;;12.78;100.00;101140.25;6226541;28;20042;-72
2023/10/23 11:16:42;;;;;;;5.80;3.13;;;;;;;12.74;100.00;101141.34;6226276;28;20057;-74
2023/10/23 11:19:45;;;;;;;7.20;3.20;;;;;;;12.69;100.00;101136.34;6226358;28;20053;-75
2023/10/23 11:22:48;;;;;;;5.53;3.13;;;;;;;12.71;100.00;101131.81;6226007;28;20053;-74
2023/10/23 11:25:50;;;;;;;7.32;3.15;;;;;;;12.85;100.00;101134.53;6226143;28;20469;-73
2023/10/23 11:28:52;;;;;;;4.15;2.67;;;;;;;13.08;100.00;101132.34;6226093;28;20081;-73
2023/10/23 11:31:53;;;;;;;4.32;3.00;;;;;;;13.34;100.00;101131.72;6225869;28;20050;-72
2023/10/23 11:35:01;;;;;;;4.75;2.78;;;;;;;13.59;100.00;101127.66;6225907;28;20052;-73
2023/10/23 11:38:03;;;;;;;5.05;2.97;;;;;;;13.58;100.00;101131.22;6226270;28;20481;-71
2023/10/23 11:41:04;;;;;;;4.95;3.13;;;;;;;13.79;100.00;101129.94;6216616;28;20378;-71
2023/10/23 11:44:07;;;;;;;3.15;2.38;;;;;;;13.92;100.00;101124.75;6201497;28;20489;-72
2023/10/23 11:47:08;;;;;;;7.18;2.88;;;;;;;13.81;100.00;101109.56;6201595;28;20138;-72
2023/10/23 11:50:12;;;;;;;9.00;3.28;;;;;;;13.88;100.00;101116.16;6201397;28;20050;-72
2023/10/23 11:53:15;;;;;;;4.35;3.05;;;;;;;13.85;100.00;101119.00;6201280;28;20054;-72
2023/10/23 11:56:17;;;;;;;4.68;2.70;;;;;;;13.83;100.00;101118.22;6201464;28;20047;-72
2023/10/23 11:59:19;;;;;;;5.32;2.70;;;;;;;13.76;100.00;101116.06;6201475;28;20046;-71
2023/10/23 12:02:21;;;;;;;8.77;3.42;;;;;;;13.62;100.00;101116.88;6201234;28;20062;-72
2023/10/23 12:05:24;;;;;;;4.50;2.72;;;;;;;13.63;100.00;101114.16;6201400;28;20074;-72
2023/10/23 12:08:26;;;;;;;4.15;2.67;;;;;;;13.70;100.00;101114.63;6201775;28;20192;-70
2023/10/23 12:11:29;;;;;;;8.70;3.00;;;;;;;13.75;100.00;101117.00;6201205;28;20054;-71
2023/10/23 12:14:30;;;;;;;3.20;2.03;;;;;;;13.75;100.00;101107.28;6201333;28;20050;-71
2023/10/23 12:17:31;;;;;;;4.72;2.50;;;;;;;13.58;100.00;101099.53;6201436;28;20050;-71
2023/10/23 12:20:34;;;;;;;3.85;2.00;;;;;;;13.64;100.00;101107.94;6201009;28;20157;-73
2023/10/23 12:23:36;;;;;;;6.43;3.28;;;;;;;13.73;100.00;101108.34;6201408;28;20061;-73
2023/10/23 12:26:37;;;;;;;3.78;1.98;;;;;;;13.85;100.00;101108.44;6205894;28;20346;-72
2023/10/23 12:29:38;;;;;;;4.05;2.22;;;;;;;13.86;100.00;101104.84;6225247;28;20058;-71
2023/10/23 12:32:40;;;;;;;4.40;1.77;;;;;;;13.97;100.00;101096.25;6225484;28;20137;-71
2023/10/23 12:35:43;;;;;;;6.43;2.80;;;;;;;14.01;100.00;101095.13;6229848;28;20049;-73
2023/10/23 12:38:44;;;;;;;7.93;3.35;;;;;;;13.97;100.00;101093.59;6229975;28;20050;-71
2023/10/23 12:41:47;;;;;;;4.88;2.40;;;;;;;13.96;100.00;101094.56;6229679;28;20213;-71
2023/10/23 12:44:48;;;;;;;5.38;2.35;;;;;;;13.94;100.00;101093.78;6229866;28;20050;-69
2023/10/23 12:47:50;;;;;;;5.40;2.80;;;;;;;13.92;100.00;101093.03;6229692;28;20053;-72
2023/10/23 12:50:52;;;;;;;3.63;2.30;;;;;;;13.87;100.00;101085.41;6229681;28;20056;-73
2023/10/23 12:53:54;;;;;;;6.35;2.35;;;;;;;13.85;100.00;101083.78;6229643;28;20065;-71
2023/10/23 12:56:57;;;;;;;7.38;3.47;;;;;;;13.83;100.00;101081.25;6229669;28;20072;-71
2023/10/23 12:59:58;;;;;;;6.95;3.78;;;;;;;13.94;100.00;101076.16;6229343;28;20054;-71
2023/10/23 13:03:00;;;;;;;7.68;4.47;;;;;;;14.05;100.00;101072.84;6229080;28;20077;-73
2023/10/23 13:06:03;;;;;;;9.93;5.22;;;;;;;14.06;100.00;101069.25;6229319;28;20050;-73
2023/10/23 13:09:04;;;;;;;10.73;4.72;;;;;;;14.14;100.00;101066.97;6221038;28;20050;-72
2023/10/23 13:12:06;;;;;;;6.47;3.67;;;;;;;14.24;100.00;101067.25;6227893;28;20041;-71
2023/10/23 13:15:08;;;;;;;7.72;4.10;;;;;;;14.25;100.00;101057.50;6219877;28;20048;-72
2023/10/23 13:18:10;;;;;;;8.93;4.88;;;;;;;14.23;100.00;101054.13;6228986;28;20054;-72
2023/10/23 13:21:13;;;;;;;11.48;5.30;;;;;;;14.24;100.00;101051.38;6220483;28;20061;-72
2023/10/23 13:24:14;;;;;;;8.93;4.47;;;;;;;14.26;100.00;101043.34;6228857;28;20072;-73
2023/10/23 13:27:16;;;;;;;8.68;5.07;;;;;;;14.20;100.00;101041.94;6225109;28;20412;-72
2023/10/23 13:30:18;;;;;;;5.65;3.95;;;;;;;14.12;100.00;101045.06;6223468;28;20057;-73
2023/10/23 13:33:20;;;;;;;7.00;4.38;;;;;;;14.03;100.00;101043.00;6217720;28;20351;-72
2023/10/23 13:36:23;;;;;;;7.45;4.15;;;;;;;14.03;100.00;101042.16;6226520;28;20046;-73
2023/10/23 13:39:24;;;;;;;6.45;4.05;;;;;;;13.97;100.00;101035.47;6228325;28;20430;-72
2023/10/23 13:42:26;;;;;;;4.90;3.33;;;;;;;13.96;100.00;101039.06;6220271;28;20041;-73
2023/10/23 13:45:28;;;;;;;6.03;3.05;;;;;;;13.98;100.00;101037.16;6223975;28;20045;-71
2023/10/23 13:48:29;;;;;;;5.25;2.80;;;;;;;14.05;100.00;101033.22;6227069;28;20041;-71